Time;durP1;ratioP1;P1;durP2;ratioP2;P2;SDS_P1;SDS_P2;PMS_P1;PMS_P2;Temp;Humidity;BMP_temperature;BMP_pressure;BME280_temperature;BME280_humidity;BME280_pressure;Samples;Min_cycle;Max_cycle;Signal;HPM_P1;HPM_P2
2023/07/16 00:00:15;;;;;;;;;;;;;;;31.06;39.76;94301.50;4982082;28;6880;-64
2023/07/16 00:02:41;;;;;;;;;;;;;;;31.04;40.01;94302.06;4893480;29;7219;-64
2023/07/16 00:05:10;;;;;;;;;;;;;;;31.06;40.04;94329.28;4871697;29;7297;-64
2023/07/16 00:07:38;;;;;;;;;;;;;;;31.03;39.86;94344.28;4880525;29;7321;-65
2023/07/16 00:10:15;;;;;;;;;;;;;;;31.03;39.34;94366.50;4888063;29;7089;-64
2023/07/16 00:13:16;;;;;;;;;;;;;;;31.04;39.39;94374.28;4879061;29;9100;-64
2023/07/16 00:15:46;;;;;;;;;;;;;;;31.06;38.90;94384.84;4908626;29;7240;-64
2023/07/16 00:18:13;;;;;;;;;;;;;;;31.06;39.39;94387.63;4917893;29;9076;-64
2023/07/16 00:21:06;;;;;;;;;;;;;;;31.06;39.53;94385.59;4928066;28;9080;-65
2023/07/16 00:23:41;;;;;;;;;;;;;;;31.07;38.89;94387.09;4917184;29;6994;-64
2023/07/16 00:26:16;;;;;;;;;;;;;;;31.03;39.09;94392.25;4918836;29;6997;-65
2023/07/16 00:29:03;;;;;;;;;;;;;;;31.05;38.65;94398.00;4927988;28;8732;-65
2023/07/16 00:32:00;;;;;;;;;;;;;;;31.05;39.68;94392.47;4918126;29;7111;-65
2023/07/16 00:34:26;;;;;;;;;;;;;;;31.03;39.61;94397.06;4877025;29;8947;-65
2023/07/16 00:37:06;;;;;;;;;;;;;;;31.00;38.96;94395.38;4862209;29;9134;-65
2023/07/16 00:39:49;;;;;;;;;;;;;;;31.02;39.06;94409.47;4927305;28;7264;-66
2023/07/16 00:42:26;;;;;;;;;;;;;;;31.02;38.78;94398.34;4970438;28;9102;-65
2023/07/16 00:45:13;;;;;;;;;;;;;;;31.01;39.57;94402.44;4971273;28;7393;-65
2023/07/16 00:47:54;;;;;;;;;;;;;;;30.99;39.55;94402.22;4955283;28;7240;-65
2023/07/16 00:50:21;;;;;;;;;;;;;;;30.99;39.11;94432.78;4955076;28;6994;-65
2023/07/16 00:52:51;;;;;;;;;;;;;;;30.98;38.68;94409.06;4953589;28;6978;-65
2023/07/16 00:55:20;;;;;;;;;;;;;;;30.97;39.29;94405.53;4969203;28;6899;-65
2023/07/16 00:57:49;;;;;;;;;;;;;;;30.97;38.95;94399.25;4968818;28;7247;-65
2023/07/16 01:00:18;;;;;;;;;;;;;;;30.96;39.38;94431.09;4968757;28;9086;-65
2023/07/16 01:02:44;;;;;;;;;;;;;;;30.95;39.36;94421.28;4967849;28;7563;-65
2023/07/16 01:05:11;;;;;;;;;;;;;;;30.97;38.64;94421.47;4967430;28;7071;-66
2023/07/16 01:08:00;;;;;;;;;;;;;;;30.97;38.97;94421.47;4952231;28;7378;-65
2023/07/16 01:10:31;;;;;;;;;;;;;;;30.97;39.07;94410.38;4972626;28;7026;-65
2023/07/16 01:12:58;;;;;;;;;;;;;;;30.96;39.13;94400.53;5027762;28;8426;-66
2023/07/16 01:15:25;;;;;;;;;;;;;;;30.94;38.75;94401.09;5010974;28;8888;-65
2023/07/16 01:17:53;;;;;;;;;;;;;;;30.96;39.40;94403.31;5010782;28;8557;-65
2023/07/16 01:20:20;;;;;;;;;;;;;;;30.96;38.37;94404.06;5029640;28;9384;-66
2023/07/16 01:23:12;;;;;;;;;;;;;;;30.99;38.45;94407.78;5028244;28;7346;-65
2023/07/16 01:26:19;;;;;;;;;;;;;;;30.99;39.21;94405.00;5017936;28;9137;-65
2023/07/16 01:29:31;;;;;;;;;;;;;;;30.99;38.38;94418.91;4958650;28;7262;-65
2023/07/16 01:32:02;;;;;;;;;;;;;;;30.96;38.98;94426.28;4929644;29;8784;-65
2023/07/16 01:34:33;;;;;;;;;;;;;;;30.99;38.26;94432.78;4929171;29;7324;-65
2023/07/16 01:37:06;;;;;;;;;;;;;;;30.99;38.33;94424.47;4928969;29;7300;-65
2023/07/16 01:39:39;;;;;;;;;;;;;;;30.98;38.77;94429.25;4929653;29;7400;-65
2023/07/16 01:42:09;;;;;;;;;;;;;;;30.97;39.00;94418.72;4929860;29;7478;-65
2023/07/16 01:44:36;;;;;;;;;;;;;;;30.96;38.72;94426.28;4912908;29;9052;-61
2023/07/16 01:47:09;;;;;;;;;;;;;;;30.97;38.78;94424.25;4913747;29;7384;-61
2023/07/16 01:49:41;;;;;;;;;;;;;;;30.96;38.34;94426.28;4928426;29;7053;-61
2023/07/16 01:52:09;;;;;;;;;;;;;;;30.97;37.94;94419.44;4929531;29;9174;-61
2023/07/16 01:54:36;;;;;;;;;;;;;;;30.89;38.34;94418.66;4913540;29;9047;-61
2023/07/16 01:57:05;;;;;;;;;;;;;;;30.92;38.88;94422.38;4928895;29;7227;-61
2023/07/16 01:59:36;;;;;;;;;;;;;;;30.92;38.67;94420.34;4928779;29;7424;-61
2023/07/16 02:02:12;;;;;;;;;;;;;;;30.92;38.15;94417.56;4937442;28;9051;-61
2023/07/16 02:04:45;;;;;;;;;;;;;;;30.94;38.27;94414.22;4969727;28;7331;-61
2023/07/16 02:07:24;;;;;;;;;;;;;;;30.94;38.26;94411.44;5030774;28;7131;-61
2023/07/16 02:10:23;;;;;;;;;;;;;;;30.96;38.50;94408.88;5032084;28;7028;-61
2023/07/16 02:13:10;;;;;;;;;;;;;;;30.94;38.52;94420.53;5021882;28;7290;-61
2023/07/16 02:15:55;;;;;;;;;;;;;;;30.93;38.56;94429.44;5027372;28;7512;-62
2023/07/16 02:18:36;;;;;;;;;;;;;;;30.94;38.64;94428.13;5013446;28;6987;-61
2023/07/16 02:21:02;;;;;;;;;;;;;;;30.94;37.76;94428.88;5010260;28;8153;-61
2023/07/16 02:23:56;;;;;;;;;;;;;;;30.92;37.62;94423.13;5014348;28;7185;-61
2023/07/16 02:26:49;;;;;;;;;;;;;;;30.92;38.54;94416.81;4983316;28;7282;-61
2023/07/16 02:29:17;;;;;;;;;;;;;;;30.89;37.73;94413.09;5000738;28;7058;-61
2023/07/16 02:32:21;;;;;;;;;;;;;;;30.91;37.68;94416.06;4982832;28;9097;-61
2023/07/16 02:35:00;;;;;;;;;;;;;;;30.90;38.02;94417.38;5018539;28;8772;-61
2023/07/16 02:37:26;;;;;;;;;;;;;;;30.90;38.29;94422.16;5018555;28;7531;-61
2023/07/16 02:40:05;;;;;;;;;;;;;;;30.87;37.63;94417.69;5003865;28;8764;-61
2023/07/16 02:42:51;;;;;;;;;;;;;;;30.87;37.65;94420.47;5017774;28;7087;-61
2023/07/16 02:45:26;;;;;;;;;;;;;;;30.90;37.49;94427.72;5005278;28;9128;-61
2023/07/16 02:48:06;;;;;;;;;;;;;;;30.88;37.63;94421.97;5007965;28;7010;-62
2023/07/16 02:50:55;;;;;;;;;;;;;;;30.88;37.46;94408.84;5005881;28;7291;-61
2023/07/16 02:53:23;;;;;;;;;;;;;;;30.86;38.12;94397.53;5024781;28;7220;-61
2023/07/16 02:56:01;;;;;;;;;;;;;;;30.88;37.64;94389.41;5006380;28;7290;-56
2023/07/16 02:58:27;;;;;;;;;;;;;;;30.89;38.08;94392.91;5007728;28;7220;-56
2023/07/16 03:00:53;;;;;;;;;;;;;;;30.87;38.03;94385.13;4999936;28;7371;-56
2023/07/16 03:03:21;;;;;;;;;;;;;;;30.84;37.42;94382.66;5011384;28;7233;-55
2023/07/16 03:05:57;;;;;;;;;;;;;;;30.85;37.75;94415.44;5032731;28;8922;-56
2023/07/16 03:08:32;;;;;;;;;;;;;;;30.86;38.17;94432.84;5034149;28;9077;-55
2023/07/16 03:11:01;;;;;;;;;;;;;;;30.87;38.25;94420.47;5016749;28;9207;-55
2023/07/16 03:13:56;;;;;;;;;;;;;;;30.88;37.89;94419.94;5035201;28;9018;-55
2023/07/16 03:16:52;;;;;;;;;;;;;;;30.87;37.53;94426.03;5001017;28;9631;-55
2023/07/16 03:19:20;;;;;;;;;;;;;;;30.86;37.69;94419.75;5004537;28;9069;-55
2023/07/16 03:22:00;;;;;;;;;;;;;;;30.83;37.61;94420.81;5015925;28;7021;-56
2023/07/16 03:24:26;;;;;;;;;;;;;;;30.81;37.57;94419.84;5004986;28;7525;-56
2023/07/16 03:26:53;;;;;;;;;;;;;;;30.82;38.34;94427.63;5003271;28;7246;-56
2023/07/16 03:29:20;;;;;;;;;;;;;;;30.82;38.39;94422.06;5017888;28;9039;-56
2023/07/16 03:31:46;;;;;;;;;;;;;;;30.82;37.77;94435.97;5003001;28;9076;-56
2023/07/16 03:34:14;;;;;;;;;;;;;;;30.82;38.48;94427.63;5002123;28;6964;-56
2023/07/16 03:36:43;;;;;;;;;;;;;;;30.82;37.88;94429.69;5000333;28;7208;-56
2023/07/16 03:39:11;;;;;;;;;;;;;;;30.81;38.45;94428.94;5018082;28;7413;-56
2023/07/16 03:41:39;;;;;;;;;;;;;;;30.77;38.72;94433.34;5000877;28;7219;-55
2023/07/16 03:44:09;;;;;;;;;;;;;;;30.81;38.56;94436.53;5018076;28;7353;-55
2023/07/16 03:46:38;;;;;;;;;;;;;;;30.81;38.50;94436.53;5001772;28;7091;-55
2023/07/16 03:49:07;;;;;;;;;;;;;;;30.81;37.66;94442.06;5001472;28;7620;-56
2023/07/16 03:51:35;;;;;;;;;;;;;;;30.79;38.20;94444.66;5017320;28;7073;-56
2023/07/16 03:54:01;;;;;;;;;;;;;;;30.79;37.70;94434.28;5012832;28;7135;-56
2023/07/16 03:56:27;;;;;;;;;;;;;;;30.77;37.56;94422.25;5012086;28;7731;-55
2023/07/16 03:58:53;;;;;;;;;;;;;;;30.79;38.01;94422.44;5013527;28;7232;-55
2023/07/16 04:01:28;;;;;;;;;;;;;;;30.79;37.84;94439.09;5012333;28;8746;-56
2023/07/16 04:04:00;;;;;;;;;;;;;;;30.77;38.45;94436.88;5030360;28;7164;-61
2023/07/16 04:06:28;;;;;;;;;;;;;;;30.78;37.57;94432.03;5014433;28;7279;-61
2023/07/16 04:09:00;;;;;;;;;;;;;;;30.78;37.82;94438.34;5032952;28;6981;-61
2023/07/16 04:11:26;;;;;;;;;;;;;;;30.77;37.70;94431.31;5030906;28;9084;-61
2023/07/16 04:13:59;;;;;;;;;;;;;;;30.76;38.23;94421.50;5019288;28;7230;-61
2023/07/16 04:16:28;;;;;;;;;;;;;;;30.77;37.56;94425.75;5013250;28;7010;-61
2023/07/16 04:18:55;;;;;;;;;;;;;;;30.78;37.36;94429.25;5029514;28;7203;-61
2023/07/16 04:21:21;;;;;;;;;;;;;;;30.75;38.48;94427.59;5027562;28;9349;-61
2023/07/16 04:23:48;;;;;;;;;;;;;;;30.75;38.44;94422.03;4996698;28;7263;-61
2023/07/16 04:26:14;;;;;;;;;;;;;;;30.76;38.68;94429.06;5029209;28;7172;-61
2023/07/16 04:28:42;;;;;;;;;;;;;;;30.77;38.15;94434.09;5012855;28;7056;-61
2023/07/16 04:31:13;;;;;;;;;;;;;;;30.76;37.92;94435.38;5012071;28;7697;-61
2023/07/16 04:33:41;;;;;;;;;;;;;;;30.70;38.26;94442.34;5012280;28;9102;-61
2023/07/16 04:36:09;;;;;;;;;;;;;;;30.70;37.91;94445.13;5012984;28;7250;-61
2023/07/16 04:38:44;;;;;;;;;;;;;;;30.74;37.44;94439.97;5032649;28;8806;-61
2023/07/16 04:41:13;;;;;;;;;;;;;;;30.75;38.50;94433.16;5031542;28;7215;-61
2023/07/16 04:43:39;;;;;;;;;;;;;;;30.73;38.14;94439.25;5028282;28;7428;-61
2023/07/16 04:46:06;;;;;;;;;;;;;;;30.75;38.18;94425.56;5016167;28;7035;-61
2023/07/16 04:48:38;;;;;;;;;;;;;;;30.76;37.59;94435.38;5016355;28;7458;-61
2023/07/16 04:51:11;;;;;;;;;;;;;;;30.74;38.33;94431.66;5027730;28;10082;-61
2023/07/16 04:53:59;;;;;;;;;;;;;;;30.73;38.09;94419.06;5031827;28;7045;-61
2023/07/16 04:57:19;;;;;;;;;;;;;;;30.73;37.83;94435.72;5033064;28;6949;-61
2023/07/16 05:00:10;;;;;;;;;;;;;;;30.71;37.44;94449.41;4938334;28;7862;-61
2023/07/16 05:02:44;;;;;;;;;;;;;;;30.67;37.88;94429.59;4942013;28;9078;-61
2023/07/16 05:05:11;;;;;;;;;;;;;;;30.67;37.54;94446.25;4944277;28;7180;-60
2023/07/16 05:07:38;;;;;;;;;;;;;;;30.65;38.16;94457.88;4932008;28;7290;-61
2023/07/16 05:10:09;;;;;;;;;;;;;;;30.65;38.19;94465.44;4924041;28;7226;-61
2023/07/16 05:12:38;;;;;;;;;;;;;;;30.67;38.49;94468.44;4937914;28;9087;-61
2023/07/16 05:15:07;;;;;;;;;;;;;;;30.66;38.33;94476.03;4939920;28;8544;-56
2023/07/16 05:17:33;;;;;;;;;;;;;;;30.67;37.90;94482.34;4929731;28;9097;-56
2023/07/16 05:19:59;;;;;;;;;;;;;;;30.68;37.39;94479.00;4922402;28;9054;-55
2023/07/16 05:22:25;;;;;;;;;;;;;;;30.66;37.41;94464.16;4922679;28;7265;-55
2023/07/16 05:24:52;;;;;;;;;;;;;;;30.65;37.43;94457.13;4916955;29;7319;-56
2023/07/16 05:27:45;;;;;;;;;;;;;;;30.67;38.20;94455.28;4933162;29;8030;-56
2023/07/16 05:30:31;;;;;;;;;;;;;;;30.64;38.29;94414.00;4929063;28;9131;-55
2023/07/16 05:33:07;;;;;;;;;;;;;;;30.65;37.85;94366.25;4940940;28;6935;-56
2023/07/16 05:35:35;;;;;;;;;;;;;;;30.65;38.19;94413.44;4971542;28;8155;-56
2023/07/16 05:38:02;;;;;;;;;;;;;;;30.65;38.37;94440.47;5014819;28;7137;-55
2023/07/16 05:40:35;;;;;;;;;;;;;;;30.66;37.50;94441.97;5014989;28;7082;-55
2023/07/16 05:43:06;;;;;;;;;;;;;;;30.65;37.63;94438.44;5032811;28;7121;-55
2023/07/16 05:45:42;;;;;;;;;;;;;;;30.63;38.15;94449.34;5014913;28;7219;-56
2023/07/16 05:48:11;;;;;;;;;;;;;;;30.63;37.32;94440.25;5030708;28;7255;-56
2023/07/16 05:50:52;;;;;;;;;;;;;;;30.66;37.39;94439.19;5007611;28;7263;-56
2023/07/16 05:53:25;;;;;;;;;;;;;;;30.64;38.28;94447.31;5014458;28;6982;-55
2023/07/16 05:56:07;;;;;;;;;;;;;;;30.64;38.42;94455.63;5029307;28;6977;-55
2023/07/16 05:58:42;;;;;;;;;;;;;;;30.61;38.04;94445.59;5012610;28;7235;-55
2023/07/16 06:01:16;;;;;;;;;;;;;;;30.59;37.70;94443.38;5014495;28;7256;-55
2023/07/16 06:03:53;;;;;;;;;;;;;;;30.60;38.55;94444.13;5031867;28;9080;-56
2023/07/16 06:06:20;;;;;;;;;;;;;;;30.59;38.16;94432.28;5031630;28;9054;-56
2023/07/16 06:08:54;;;;;;;;;;;;;;;30.58;38.27;94425.22;5013938;28;7003;-55
2023/07/16 06:11:22;;;;;;;;;;;;;;;30.61;38.15;94401.19;5030799;28;6993;-56
2023/07/16 06:13:59;;;;;;;;;;;;;;;30.61;37.74;94404.72;5031911;28;9742;-55
2023/07/16 06:16:28;;;;;;;;;;;;;;;30.64;37.97;94400.13;5031790;28;8802;-56
2023/07/16 06:19:24;;;;;;;;;;;;;;;30.65;37.87;94407.13;5033476;28;9051;-56
2023/07/16 06:21:50;;;;;;;;;;;;;;;30.66;37.57;94412.16;5017938;28;7261;-56
2023/07/16 06:24:49;;;;;;;;;;;;;;;30.66;38.32;94414.94;5018126;28;7507;-57
2023/07/16 06:27:15;;;;;;;;;;;;;;;30.69;37.95;94424.22;5015353;28;7470;-56
2023/07/16 06:29:53;;;;;;;;;;;;;;;30.68;37.48;94422.72;5034566;28;7323;-57
2023/07/16 06:32:26;;;;;;;;;;;;;;;30.65;37.41;94423.81;5033106;28;7255;-57
2023/07/16 06:34:54;;;;;;;;;;;;;;;30.68;38.06;94428.28;5017966;28;8223;-56
2023/07/16 06:37:39;;;;;;;;;;;;;;;30.67;38.35;94426.81;5033051;28;7191;-57
2023/07/16 06:40:56;;;;;;;;;;;;;;;30.73;38.31;94435.72;5014065;28;7234;-57
2023/07/16 06:43:43;;;;;;;;;;;;;;;30.71;38.16;94432.75;4962792;28;7166;-57
2023/07/16 06:46:09;;;;;;;;;;;;;;;30.70;37.98;94439.56;4951085;28;7272;-57
2023/07/16 06:48:36;;;;;;;;;;;;;;;30.68;38.28;94439.38;4960670;28;7210;-57
2023/07/16 06:51:08;;;;;;;;;;;;;;;30.70;37.64;94432.00;4952007;28;7237;-57
2023/07/16 06:53:47;;;;;;;;;;;;;;;30.71;37.93;94439.03;4961473;28;7241;-57
2023/07/16 06:56:22;;;;;;;;;;;;;;;30.72;37.20;94439.78;4963712;28;9660;-56
2023/07/16 06:58:48;;;;;;;;;;;;;;;30.72;37.88;94445.34;4963849;28;8962;-57
2023/07/16 07:02:04;;;;;;;;;;;;;;;30.72;37.94;94445.34;4947459;28;7053;-57
2023/07/16 07:04:56;;;;;;;;;;;;;;;30.71;38.31;94435.53;4898551;29;7496;-57
2023/07/16 07:07:21;;;;;;;;;;;;;;;30.72;38.22;94443.31;4895367;29;7339;-57
2023/07/16 07:10:05;;;;;;;;;;;;;;;30.74;37.55;94449.06;4905563;29;7199;-57
2023/07/16 07:12:55;;;;;;;;;;;;;;;30.74;38.29;94435.16;4907198;29;7265;-57
2023/07/16 07:15:50;;;;;;;;;;;;;;;30.74;38.21;94426.09;4905579;29;8557;-57
2023/07/16 07:18:17;;;;;;;;;;;;;;;30.74;37.68;94417.75;4871001;29;6994;-57
2023/07/16 07:21:12;;;;;;;;;;;;;;;30.75;37.90;94416.47;4910427;29;9089;-57
2023/07/16 07:23:40;;;;;;;;;;;;;;;30.72;37.75;94407.22;4864146;29;9079;-57
2023/07/16 07:26:22;;;;;;;;;;;;;;;30.70;37.53;94415.34;4889030;29;7065;-57
2023/07/16 07:29:24;;;;;;;;;;;;;;;30.73;37.19;94430.16;4886129;29;7235;-57
2023/07/16 07:32:49;;;;;;;;;;;;;;;30.71;37.20;94427.91;4887016;29;7307;-57
2023/07/16 07:35:26;;;;;;;;;;;;;;;30.70;37.77;94425.69;4842688;29;7819;-61
2023/07/16 07:37:53;;;;;;;;;;;;;;;30.72;37.47;94425.91;4849307;29;7247;-61
2023/07/16 07:40:38;;;;;;;;;;;;;;;30.68;37.31;94422.72;4858721;29;7041;-61
2023/07/16 07:43:15;;;;;;;;;;;;;;;30.70;37.88;94425.69;4886363;29;8131;-62
2023/07/16 07:45:44;;;;;;;;;;;;;;;30.67;37.89;94429.59;4870104;29;9259;-61
2023/07/16 07:48:30;;;;;;;;;;;;;;;30.65;37.85;94418.25;4886896;29;7078;-61
2023/07/16 07:50:57;;;;;;;;;;;;;;;30.66;37.63;94405.88;4887844;29;8273;-62
2023/07/16 07:53:33;;;;;;;;;;;;;;;30.62;38.31;94408.25;4869633;29;7351;-62
2023/07/16 07:56:31;;;;;;;;;;;;;;;30.64;37.27;94408.44;4896043;29;7134;-61
2023/07/16 07:59:17;;;;;;;;;;;;;;;30.65;37.85;94413.44;4887506;29;9051;-61
2023/07/16 08:01:43;;;;;;;;;;;;;;;30.68;38.21;94412.38;4903157;29;7422;-61
2023/07/16 08:04:21;;;;;;;;;;;;;;;30.66;38.08;94397.53;4919035;29;7133;-61
2023/07/16 08:06:56;;;;;;;;;;;;;;;30.68;38.11;94400.50;4917662;29;7283;-61
2023/07/16 08:09:22;;;;;;;;;;;;;;;30.69;37.92;94402.00;4926251;28;8727;-61
2023/07/16 08:12:14;;;;;;;;;;;;;;;30.68;37.69;94411.63;4937326;28;6959;-61
2023/07/16 08:14:51;;;;;;;;;;;;;;;30.70;37.31;94420.13;4953766;28;9866;-61
2023/07/16 08:17:17;;;;;;;;;;;;;;;30.63;38.22;94418.03;4953790;28;9188;-61
2023/07/16 08:19:46;;;;;;;;;;;;;;;30.67;37.97;94426.81;4935550;28;7247;-61
2023/07/16 08:22:12;;;;;;;;;;;;;;;30.67;38.11;94430.31;4933408;28;7281;-61
2023/07/16 08:25:26;;;;;;;;;;;;;;;30.69;37.07;94452.00;4937760;28;9085;-61
2023/07/16 08:28:08;;;;;;;;;;;;;;;30.70;37.77;94465.31;4906646;29;7344;-61
2023/07/16 08:34:09;;;;;;;;;;;;;;;30.68;37.19;94437.34;4921176;28;8740;-61
2023/07/16 08:36:37;;;;;;;;;;;;;;;30.70;37.77;94420.13;4951794;28;7323;-61
2023/07/16 08:39:19;;;;;;;;;;;;;;;30.67;37.79;94404.59;4928688;28;7230;-61
2023/07/16 08:41:59;;;;;;;;;;;;;;;30.67;37.48;94399.03;4947321;28;9203;-61
2023/07/16 08:44:42;;;;;;;;;;;;;;;30.65;37.99;94390.47;4937212;28;7235;-61
2023/07/16 08:47:18;;;;;;;;;;;;;;;30.67;37.23;94379.59;4933798;28;8217;-62
2023/07/16 08:50:04;;;;;;;;;;;;;;;30.69;37.98;94379.78;4945068;28;7245;-62
2023/07/16 08:52:46;;;;;;;;;;;;;;;30.69;37.14;94391.63;4951841;28;7065;-62
2023/07/16 08:55:24;;;;;;;;;;;;;;;30.70;37.82;94406.25;4936268;28;8994;-62
2023/07/16 08:58:27;;;;;;;;;;;;;;;30.68;37.66;94429.03;4953223;28;7348;-61
2023/07/16 09:01:10;;;;;;;;;;;;;;;30.67;36.97;94435.84;4915829;29;7200;-61
2023/07/16 09:04:01;;;;;;;;;;;;;;;30.71;37.51;94443.84;4899732;29;7177;-62
2023/07/16 09:06:34;;;;;;;;;;;;;;;30.68;37.88;94431.06;4912863;29;7640;-61
2023/07/16 09:09:32;;;;;;;;;;;;;;;30.69;37.75;94429.78;4916895;29;8811;-61
2023/07/16 09:12:15;;;;;;;;;;;;;;;30.67;37.82;94426.81;4915669;29;9144;-62
2023/07/16 09:14:53;;;;;;;;;;;;;;;30.66;38.20;94428.81;4931595;29;8968;-61
2023/07/16 09:17:27;;;;;;;;;;;;;;;30.68;37.46;94431.06;4932559;29;7225;-61
2023/07/16 09:20:06;;;;;;;;;;;;;;;30.66;37.74;94436.41;4917520;29;9625;-62
2023/07/16 09:22:34;;;;;;;;;;;;;;;30.68;37.15;94431.06;4933257;29;7244;-62
2023/07/16 09:25:03;;;;;;;;;;;;;;;30.67;37.61;94437.91;4914270;29;7233;-62
2023/07/16 09:27:49;;;;;;;;;;;;;;;30.70;38.13;94440.34;4933039;29;7272;-61
2023/07/16 09:30:42;;;;;;;;;;;;;;;30.71;38.01;94447.34;4932251;29;7494;-62
2023/07/16 09:33:21;;;;;;;;;;;;;;;30.71;36.81;94446.63;4901784;29;7239;-62
2023/07/16 09:36:03;;;;;;;;;;;;;;;30.71;37.44;94438.31;5014298;28;7205;-62
2023/07/16 09:38:37;;;;;;;;;;;;;;;30.72;37.61;94442.56;5031920;28;8826;-61
2023/07/16 09:41:08;;;;;;;;;;;;;;;30.74;38.15;94434.41;5014788;28;7304;-62
2023/07/16 09:43:41;;;;;;;;;;;;;;;30.74;36.86;94443.50;5031084;28;8196;-61
2023/07/16 09:46:08;;;;;;;;;;;;;;;30.75;37.57;94438.69;5028827;28;9096;-62
2023/07/16 09:48:51;;;;;;;;;;;;;;;30.72;37.35;94434.97;5030084;28;7270;-62
2023/07/16 09:51:32;;;;;;;;;;;;;;;30.75;36.88;94433.16;5030338;28;8861;-61
2023/07/16 09:54:15;;;;;;;;;;;;;;;30.73;36.99;94430.16;5031875;28;7040;-63
2023/07/16 09:56:52;;;;;;;;;;;;;;;30.73;37.65;94442.03;5034724;28;8738;-64
2023/07/16 09:59:35;;;;;;;;;;;;;;;30.71;37.09;94447.34;5035632;28;7277;-64
2023/07/16 10:02:08;;;;;;;;;;;;;;;30.74;37.73;94445.53;5016815;28;7236;-64
2023/07/16 10:04:39;;;;;;;;;;;;;;;30.73;37.83;94458.69;5009712;28;8979;-64
2023/07/16 10:07:21;;;;;;;;;;;;;;;30.71;37.02;94443.84;5034708;28;7241;-64
2023/07/16 10:10:21;;;;;;;;;;;;;;;30.69;38.07;94452.00;5055159;28;7018;-64
2023/07/16 10:13:14;;;;;;;;;;;;;;;30.70;37.55;94451.44;4924704;29;7235;-64
2023/07/16 10:16:04;;;;;;;;;;;;;;;30.70;37.15;94453.47;4936213;29;7315;-64
2023/07/16 10:18:53;;;;;;;;;;;;;;;30.70;37.94;94454.22;4921066;29;6990;-64
2023/07/16 10:21:45;;;;;;;;;;;;;;;30.69;38.21;94460.31;4936961;29;7218;-64
2023/07/16 10:24:18;;;;;;;;;;;;;;;30.69;37.33;94452.00;4936334;29;9765;-64
2023/07/16 10:26:52;;;;;;;;;;;;;;;30.66;37.71;94450.28;4936203;29;7447;-64
2023/07/16 10:29:36;;;;;;;;;;;;;;;30.64;38.09;94455.63;4921225;29;7278;-64
2023/07/16 10:32:29;;;;;;;;;;;;;;;30.64;37.42;94466.75;4936571;29;7250;-64
2023/07/16 10:34:59;;;;;;;;;;;;;;;30.66;37.30;94458.63;4935083;29;7252;-64
2023/07/16 10:37:27;;;;;;;;;;;;;;;30.64;37.36;94453.63;4936066;29;6960;-64
2023/07/16 10:40:12;;;;;;;;;;;;;;;30.69;37.38;94466.59;4919904;29;7045;-64
2023/07/16 10:42:57;;;;;;;;;;;;;;;30.73;37.20;94466.28;4919048;29;7231;-64
2023/07/16 10:45:36;;;;;;;;;;;;;;;30.71;37.76;94454.97;4935688;29;7168;-64
2023/07/16 10:48:12;;;;;;;;;;;;;;;30.71;37.37;94460.53;4976872;28;7318;-64
2023/07/16 10:50:44;;;;;;;;;;;;;;;30.71;37.89;94466.78;5054449;28;6928;-64
2023/07/16 10:53:40;;;;;;;;;;;;;;;30.74;36.76;94453.84;5038909;28;7389;-64
2023/07/16 10:56:08;;;;;;;;;;;;;;;30.71;37.93;94452.91;5035558;28;7851;-64
2023/07/16 10:58:41;;;;;;;;;;;;;;;30.68;37.71;94451.25;5032000;28;7232;-64
2023/07/16 11:01:14;;;;;;;;;;;;;;;30.68;36.81;94448.47;5037667;28;7331;-64
2023/07/16 11:03:40;;;;;;;;;;;;;;;30.70;36.97;94453.47;5053306;28;7082;-64
2023/07/16 11:06:26;;;;;;;;;;;;;;;30.68;37.25;94444.94;5049959;28;6993;-61
2023/07/16 11:09:12;;;;;;;;;;;;;;;30.74;37.67;94449.06;5054999;28;9004;-61
2023/07/16 11:11:49;;;;;;;;;;;;;;;30.72;37.07;94456.44;5053847;28;7254;-62
2023/07/16 11:14:17;;;;;;;;;;;;;;;30.71;36.94;94455.69;5054602;28;7381;-62
2023/07/16 11:16:50;;;;;;;;;;;;;;;30.70;37.55;94453.47;5034999;28;7290;-61
2023/07/16 11:19:25;;;;;;;;;;;;;;;30.68;37.07;94451.25;5052839;28;7281;-61
2023/07/16 11:22:10;;;;;;;;;;;;;;;30.68;37.56;94448.47;5032028;28;7219;-61
2023/07/16 11:24:46;;;;;;;;;;;;;;;30.67;37.48;94454.56;5048392;28;7227;-61
2023/07/16 11:27:23;;;;;;;;;;;;;;;30.71;36.64;94457.75;5033715;28;7258;-62
2023/07/16 11:29:54;;;;;;;;;;;;;;;30.73;37.33;94450.38;5033909;28;9041;-62
2023/07/16 11:32:32;;;;;;;;;;;;;;;30.75;36.97;94453.34;5050694;28;9073;-61
2023/07/16 11:35:05;;;;;;;;;;;;;;;30.77;37.14;94436.88;5033924;28;9060;-61
2023/07/16 11:37:39;;;;;;;;;;;;;;;30.76;37.32;94434.63;5052340;28;7235;-62
2023/07/16 11:40:27;;;;;;;;;;;;;;;30.76;36.92;94437.41;5034539;28;7228;-62
2023/07/16 11:42:55;;;;;;;;;;;;;;;30.76;37.70;94440.19;5051574;28;9202;-62
2023/07/16 11:45:40;;;;;;;;;;;;;;;30.78;36.87;94443.16;5036403;28;9009;-61
2023/07/16 11:48:16;;;;;;;;;;;;;;;30.79;37.46;94442.63;5052357;28;7365;-61
2023/07/16 11:50:45;;;;;;;;;;;;;;;30.80;37.10;94437.81;5036204;28;7020;-62
2023/07/16 11:53:17;;;;;;;;;;;;;;;30.77;36.81;94436.88;5033211;28;7218;-61
2023/07/16 11:56:01;;;;;;;;;;;;;;;30.79;36.65;94431.50;5052454;28;9116;-61
2023/07/16 11:58:34;;;;;;;;;;;;;;;30.80;36.51;94441.31;5035819;28;8765;-62
2023/07/16 12:01:14;;;;;;;;;;;;;;;30.82;36.40;94433.19;5054419;28;7094;-62
2023/07/16 12:03:40;;;;;;;;;;;;;;;30.80;37.24;94424.66;5034680;28;6998;-61
2023/07/16 12:06:19;;;;;;;;;;;;;;;30.78;36.82;94427.25;5034775;28;8988;-61
2023/07/16 12:09:10;;;;;;;;;;;;;;;30.81;36.72;94430.97;5035913;28;6856;-61
2023/07/16 12:12:03;;;;;;;;;;;;;;;30.80;37.68;94435.03;5035972;28;7320;-61
2023/07/16 12:14:50;;;;;;;;;;;;;;;30.80;37.23;94432.28;5037240;28;7576;-61
2023/07/16 12:17:18;;;;;;;;;;;;;;;30.79;36.77;94425.97;5034547;28;7003;-61
2023/07/16 12:19:44;;;;;;;;;;;;;;;30.83;37.01;94429.13;5036512;28;9818;-61
2023/07/16 12:22:11;;;;;;;;;;;;;;;30.81;37.49;94423.38;5036036;28;9049;-61
2023/07/16 12:25:10;;;;;;;;;;;;;;;30.81;37.37;94426.16;5035940;28;7055;-61
2023/07/16 12:27:45;;;;;;;;;;;;;;;30.80;37.23;94421.88;4950106;28;9158;-61
2023/07/16 12:30:26;;;;;;;;;;;;;;;30.82;37.60;94429.69;4956272;28;7531;-61
2023/07/16 12:33:11;;;;;;;;;;;;;;;30.82;37.95;94429.69;4972293;28;7432;-62
2023/07/16 12:36:11;;;;;;;;;;;;;;;30.84;37.96;94429.88;4971477;28;9496;-61
2023/07/16 12:38:52;;;;;;;;;;;;;;;30.88;37.18;94430.31;4971691;28;7251;-61
2023/07/16 12:41:42;;;;;;;;;;;;;;;30.87;37.44;94440.66;4952873;28;7340;-62
2023/07/16 12:44:46;;;;;;;;;;;;;;;30.86;37.76;94432.84;4955045;28;7045;-62
2023/07/16 12:47:29;;;;;;;;;;;;;;;30.86;37.97;94427.31;4906868;29;7245;-61
2023/07/16 12:50:06;;;;;;;;;;;;;;;30.87;37.48;94420.47;4898855;29;7021;-61
2023/07/16 12:52:33;;;;;;;;;;;;;;;30.86;37.76;94430.88;4910413;29;7080;-61
2023/07/16 12:55:00;;;;;;;;;;;;;;;30.87;38.17;94432.34;4907096;29;6987;-61
2023/07/16 12:57:38;;;;;;;;;;;;;;;30.92;37.94;94436.25;4900251;29;7297;-61
2023/07/16 13:00:10;;;;;;;;;;;;;;;30.90;37.20;94420.16;4899617;29;7225;-61
2023/07/16 13:02:37;;;;;;;;;;;;;;;30.92;37.26;94417.56;4927010;28;9161;-62
2023/07/16 13:05:09;;;;;;;;;;;;;;;30.92;37.49;94427.91;4988265;28;7205;-61
2023/07/16 13:07:49;;;;;;;;;;;;;;;30.91;37.37;94426.41;4974217;28;6978;-62
2023/07/16 13:10:35;;;;;;;;;;;;;;;30.93;37.19;94415.53;4974959;28;7460;-61
2023/07/16 13:13:03;;;;;;;;;;;;;;;30.93;38.28;94409.97;4975618;28;9034;-61
2023/07/16 13:15:45;;;;;;;;;;;;;;;30.91;37.86;94420.88;4975539;28;8781;-61
2023/07/16 13:18:11;;;;;;;;;;;;;;;30.94;38.19;94422.56;4974907;28;7077;-61
2023/07/16 13:20:40;;;;;;;;;;;;;;;30.95;37.45;94421.28;5007550;28;6973;-61
2023/07/16 13:23:13;;;;;;;;;;;;;;;30.94;38.17;94420.53;5052323;28;7244;-61
2023/07/16 13:25:41;;;;;;;;;;;;;;;30.92;38.31;94417.56;5034861;28;7181;-65
2023/07/16 13:28:08;;;;;;;;;;;;;;;30.91;38.07;94412.53;5034900;28;7410;-65
2023/07/16 13:30:47;;;;;;;;;;;;;;;30.90;37.98;94422.94;5035313;28;8754;-65
2023/07/16 13:33:31;;;;;;;;;;;;;;;30.91;38.20;94418.09;5050809;28;9123;-65
2023/07/16 13:36:01;;;;;;;;;;;;;;;30.91;38.02;94406.97;5034916;28;7214;-65
2023/07/16 13:38:33;;;;;;;;;;;;;;;30.92;37.78;94405.69;5047997;28;7144;-65
2023/07/16 13:41:18;;;;;;;;;;;;;;;30.89;38.79;94396.41;5034707;28;6995;-65
2023/07/16 13:44:05;;;;;;;;;;;;;;;30.89;38.59;94392.91;5032184;28;6970;-65
2023/07/16 13:46:37;;;;;;;;;;;;;;;30.88;37.87;94389.41;5034769;28;9391;-65
2023/07/16 13:49:22;;;;;;;;;;;;;;;30.90;38.23;94388.84;5034840;28;7295;-65
2023/07/16 13:51:52;;;;;;;;;;;;;;;30.93;37.85;94390.53;5034676;28;7099;-65